sensor_id;sensor_type;location;lat;lon;timestamp;P1;durP1;ratioP1;P2;durP2;ratioP2
45198;SDS011;30941;46.422;18.772;2023-05-10T00:00:26;7.78;;;5.60;;
45198;SDS011;30941;46.422;18.772;2023-05-10T00:02:51;9.02;;;5.85;;
45198;SDS011;30941;46.422;18.772;2023-05-10T00:05:17;8.73;;;6.10;;
45198;SDS011;30941;46.422;18.772;2023-05-10T00:07:42;9.60;;;6.53;;
45198;SDS011;30941;46.422;18.772;2023-05-10T00:10:10;11.40;;;7.38;;
45198;SDS011;30941;46.422;18.772;2023-05-10T00:12:35;11.10;;;6.95;;
45198;SDS011;30941;46.422;18.772;2023-05-10T00:15:01;8.55;;;6.30;;
45198;SDS011;30941;46.422;18.772;2023-05-10T00:17:27;9.73;;;6.72;;
45198;SDS011;30941;46.422;18.772;2023-05-10T00:19:53;9.55;;;6.75;;
45198;SDS011;30941;46.422;18.772;2023-05-10T00:22:19;9.25;;;6.80;;
45198;SDS011;30941;46.422;18.772;2023-05-10T00:24:44;9.50;;;6.85;;
45198;SDS011;30941;46.422;18.772;2023-05-10T00:27:10;10.73;;;6.72;;
45198;SDS011;30941;46.422;18.772;2023-05-10T00:29:35;10.63;;;7.55;;
45198;SDS011;30941;46.422;18.772;2023-05-10T00:32:00;13.68;;;7.88;;
45198;SDS011;30941;46.422;18.772;2023-05-10T00:34:26;10.45;;;7.13;;
45198;SDS011;30941;46.422;18.772;2023-05-10T00:36:52;11.82;;;7.18;;
45198;SDS011;30941;46.422;18.772;2023-05-10T00:39:17;11.38;;;7.53;;
45198;SDS011;30941;46.422;18.772;2023-05-10T00:41:42;12.90;;;7.85;;
45198;SDS011;30941;46.422;18.772;2023-05-10T00:44:08;13.20;;;8.95;;
45198;SDS011;30941;46.422;18.772;2023-05-10T00:46:33;12.10;;;7.90;;
45198;SDS011;30941;46.422;18.772;2023-05-10T00:48:59;10.88;;;7.72;;
45198;SDS011;30941;46.422;18.772;2023-05-10T00:51:24;16.33;;;8.43;;
45198;SDS011;30941;46.422;18.772;2023-05-10T00:53:50;12.48;;;8.57;;
45198;SDS011;30941;46.422;18.772;2023-05-10T00:56:16;13.93;;;8.90;;
45198;SDS011;30941;46.422;18.772;2023-05-10T00:58:42;12.80;;;8.65;;
45198;SDS011;30941;46.422;18.772;2023-05-10T01:01:07;14.52;;;9.75;;
45198;SDS011;30941;46.422;18.772;2023-05-10T01:03:34;15.02;;;9.05;;
45198;SDS011;30941;46.422;18.772;2023-05-10T01:06:00;12.23;;;8.55;;
45198;SDS011;30941;46.422;18.772;2023-05-10T01:08:25;14.90;;;8.43;;
45198;SDS011;30941;46.422;18.772;2023-05-10T01:10:51;12.25;;;8.65;;
45198;SDS011;30941;46.422;18.772;2023-05-10T01:13:18;13.30;;;9.23;;
45198;SDS011;30941;46.422;18.772;2023-05-10T01:15:58;14.85;;;8.65;;
45198;SDS011;30941;46.422;18.772;2023-05-10T01:18:24;13.15;;;9.52;;
45198;SDS011;30941;46.422;18.772;2023-05-10T01:20:54;13.55;;;9.02;;
45198;SDS011;30941;46.422;18.772;2023-05-10T01:26:16;14.82;;;9.18;;
45198;SDS011;30941;46.422;18.772;2023-05-10T01:34:42;16.67;;;9.85;;
45198;SDS011;30941;46.422;18.772;2023-05-10T01:37:20;13.93;;;8.98;;
45198;SDS011;30941;46.422;18.772;2023-05-10T01:39:49;13.60;;;8.90;;
45198;SDS011;30941;46.422;18.772;2023-05-10T01:42:20;13.40;;;9.68;;
45198;SDS011;30941;46.422;18.772;2023-05-10T01:44:52;13.68;;;9.32;;
45198;SDS011;30941;46.422;18.772;2023-05-10T01:47:35;13.40;;;9.45;;
45198;SDS011;30941;46.422;18.772;2023-05-10T01:50:04;18.08;;;9.20;;
45198;SDS011;30941;46.422;18.772;2023-05-10T01:52:33;16.25;;;11.00;;
45198;SDS011;30941;46.422;18.772;2023-05-10T01:55:04;16.17;;;11.20;;
45198;SDS011;30941;46.422;18.772;2023-05-10T01:57:32;19.00;;;10.65;;
45198;SDS011;30941;46.422;18.772;2023-05-10T01:59:59;15.65;;;10.35;;
45198;SDS011;30941;46.422;18.772;2023-05-10T02:02:27;13.73;;;10.00;;
45198;SDS011;30941;46.422;18.772;2023-05-10T02:04:54;15.02;;;9.95;;
45198;SDS011;30941;46.422;18.772;2023-05-10T02:07:21;14.25;;;10.18;;
45198;SDS011;30941;46.422;18.772;2023-05-10T02:09:48;16.95;;;10.45;;
45198;SDS011;30941;46.422;18.772;2023-05-10T02:12:13;17.45;;;11.10;;
45198;SDS011;30941;46.422;18.772;2023-05-10T02:14:40;15.43;;;11.32;;
45198;SDS011;30941;46.422;18.772;2023-05-10T02:17:06;17.52;;;12.15;;
45198;SDS011;30941;46.422;18.772;2023-05-10T02:19:32;15.65;;;11.50;;
45198;SDS011;30941;46.422;18.772;2023-05-10T02:21:59;17.95;;;12.00;;
45198;SDS011;30941;46.422;18.772;2023-05-10T02:24:26;21.42;;;11.77;;
45198;SDS011;30941;46.422;18.772;2023-05-10T02:26:53;17.88;;;12.32;;
45198;SDS011;30941;46.422;18.772;2023-05-10T02:29:19;18.23;;;11.82;;
45198;SDS011;30941;46.422;18.772;2023-05-10T02:31:45;17.35;;;12.30;;
45198;SDS011;30941;46.422;18.772;2023-05-10T02:34:10;18.80;;;11.75;;
45198;SDS011;30941;46.422;18.772;2023-05-10T02:36:37;26.13;;;12.48;;
45198;SDS011;30941;46.422;18.772;2023-05-10T02:39:03;16.75;;;11.75;;
45198;SDS011;30941;46.422;18.772;2023-05-10T02:41:30;17.75;;;12.23;;
45198;SDS011;30941;46.422;18.772;2023-05-10T02:43:57;19.00;;;12.38;;
45198;SDS011;30941;46.422;18.772;2023-05-10T02:46:25;18.45;;;12.05;;
45198;SDS011;30941;46.422;18.772;2023-05-10T02:48:50;21.33;;;12.10;;
45198;SDS011;30941;46.422;18.772;2023-05-10T02:51:16;18.15;;;12.13;;
45198;SDS011;30941;46.422;18.772;2023-05-10T02:53:44;20.10;;;13.25;;
45198;SDS011;30941;46.422;18.772;2023-05-10T02:56:12;19.27;;;13.30;;
45198;SDS011;30941;46.422;18.772;2023-05-10T02:58:39;22.48;;;12.88;;
45198;SDS011;30941;46.422;18.772;2023-05-10T03:01:05;21.60;;;12.23;;
45198;SDS011;30941;46.422;18.772;2023-05-10T03:03:32;16.98;;;11.68;;
45198;SDS011;30941;46.422;18.772;2023-05-10T03:05:57;19.83;;;13.23;;
45198;SDS011;30941;46.422;18.772;2023-05-10T03:08:23;17.48;;;11.85;;
45198;SDS011;30941;46.422;18.772;2023-05-10T03:10:59;19.05;;;13.43;;
45198;SDS011;30941;46.422;18.772;2023-05-10T03:13:35;17.35;;;11.93;;
45198;SDS011;30941;46.422;18.772;2023-05-10T03:16:12;22.88;;;13.50;;
45198;SDS011;30941;46.422;18.772;2023-05-10T03:21:25;21.60;;;13.25;;
45198;SDS011;30941;46.422;18.772;2023-05-10T03:24:05;19.05;;;12.82;;
45198;SDS011;30941;46.422;18.772;2023-05-10T03:26:32;18.15;;;12.73;;
45198;SDS011;30941;46.422;18.772;2023-05-10T03:28:58;20.20;;;12.15;;
45198;SDS011;30941;46.422;18.772;2023-05-10T03:31:24;17.58;;;11.85;;
45198;SDS011;30941;46.422;18.772;2023-05-10T03:33:50;17.73;;;11.63;;
45198;SDS011;30941;46.422;18.772;2023-05-10T03:36:17;15.23;;;11.15;;
45198;SDS011;30941;46.422;18.772;2023-05-10T03:38:43;19.25;;;12.57;;
45198;SDS011;30941;46.422;18.772;2023-05-10T03:41:08;16.75;;;11.90;;
45198;SDS011;30941;46.422;18.772;2023-05-10T03:43:33;19.23;;;13.25;;
45198;SDS011;30941;46.422;18.772;2023-05-10T03:46:01;19.92;;;12.85;;
45198;SDS011;30941;46.422;18.772;2023-05-10T03:48:27;16.50;;;12.13;;
45198;SDS011;30941;46.422;18.772;2023-05-10T03:50:52;17.45;;;12.55;;
45198;SDS011;30941;46.422;18.772;2023-05-10T03:53:18;17.70;;;11.50;;
45198;SDS011;30941;46.422;18.772;2023-05-10T03:55:43;15.38;;;11.50;;
45198;SDS011;30941;46.422;18.772;2023-05-10T03:58:11;16.50;;;10.77;;
45198;SDS011;30941;46.422;18.772;2023-05-10T04:00:37;17.05;;;12.02;;
45198;SDS011;30941;46.422;18.772;2023-05-10T04:03:08;17.10;;;10.43;;
45198;SDS011;30941;46.422;18.772;2023-05-10T04:05:34;12.32;;;9.77;;
45198;SDS011;30941;46.422;18.772;2023-05-10T04:07:59;15.43;;;11.13;;
45198;SDS011;30941;46.422;18.772;2023-05-10T04:10:25;14.50;;;10.02;;
45198;SDS011;30941;46.422;18.772;2023-05-10T04:12:50;17.95;;;9.32;;
45198;SDS011;30941;46.422;18.772;2023-05-10T04:15:16;13.52;;;9.50;;
45198;SDS011;30941;46.422;18.772;2023-05-10T04:17:41;16.23;;;10.45;;
45198;SDS011;30941;46.422;18.772;2023-05-10T04:20:07;13.85;;;9.27;;
45198;SDS011;30941;46.422;18.772;2023-05-10T04:22:33;15.02;;;9.32;;
45198;SDS011;30941;46.422;18.772;2023-05-10T04:24:58;15.27;;;10.07;;
45198;SDS011;30941;46.422;18.772;2023-05-10T04:27:24;15.27;;;9.10;;
45198;SDS011;30941;46.422;18.772;2023-05-10T04:29:49;16.02;;;9.70;;
45198;SDS011;30941;46.422;18.772;2023-05-10T04:32:15;15.20;;;9.10;;
45198;SDS011;30941;46.422;18.772;2023-05-10T04:34:42;13.65;;;9.60;;
45198;SDS011;30941;46.422;18.772;2023-05-10T04:37:08;13.75;;;9.52;;
45198;SDS011;30941;46.422;18.772;2023-05-10T04:39:33;15.35;;;10.30;;
45198;SDS011;30941;46.422;18.772;2023-05-10T04:41:59;16.00;;;9.90;;
45198;SDS011;30941;46.422;18.772;2023-05-10T04:44:24;14.25;;;9.13;;
45198;SDS011;30941;46.422;18.772;2023-05-10T04:46:49;12.20;;;9.20;;
45198;SDS011;30941;46.422;18.772;2023-05-10T04:49:15;12.57;;;9.30;;
45198;SDS011;30941;46.422;18.772;2023-05-10T04:51:40;11.40;;;8.85;;
45198;SDS011;30941;46.422;18.772;2023-05-10T04:54:06;13.38;;;8.88;;
45198;SDS011;30941;46.422;18.772;2023-05-10T04:56:31;13.80;;;9.57;;
45198;SDS011;30941;46.422;18.772;2023-05-10T04:58:57;14.70;;;9.50;;
45198;SDS011;30941;46.422;18.772;2023-05-10T05:01:22;10.95;;;8.60;;
45198;SDS011;30941;46.422;18.772;2023-05-10T05:03:48;10.45;;;7.97;;
45198;SDS011;30941;46.422;18.772;2023-05-10T05:06:13;12.73;;;8.43;;
45198;SDS011;30941;46.422;18.772;2023-05-10T05:08:38;11.93;;;8.18;;
45198;SDS011;30941;46.422;18.772;2023-05-10T05:11:04;9.93;;;7.57;;
45198;SDS011;30941;46.422;18.772;2023-05-10T05:13:29;9.93;;;7.97;;
45198;SDS011;30941;46.422;18.772;2023-05-10T05:15:55;12.13;;;7.88;;
45198;SDS011;30941;46.422;18.772;2023-05-10T05:18:20;11.82;;;8.48;;
45198;SDS011;30941;46.422;18.772;2023-05-10T05:20:45;14.55;;;8.57;;
45198;SDS011;30941;46.422;18.772;2023-05-10T05:23:11;11.43;;;7.50;;
45198;SDS011;30941;46.422;18.772;2023-05-10T05:25:36;10.02;;;7.75;;
45198;SDS011;30941;46.422;18.772;2023-05-10T05:28:02;11.07;;;7.72;;
45198;SDS011;30941;46.422;18.772;2023-05-10T05:30:27;10.27;;;7.63;;
45198;SDS011;30941;46.422;18.772;2023-05-10T05:32:52;10.02;;;6.88;;
45198;SDS011;30941;46.422;18.772;2023-05-10T05:35:18;10.30;;;7.90;;
45198;SDS011;30941;46.422;18.772;2023-05-10T05:37:43;10.70;;;7.35;;
45198;SDS011;30941;46.422;18.772;2023-05-10T05:40:11;9.63;;;7.53;;
45198;SDS011;30941;46.422;18.772;2023-05-10T05:42:37;10.30;;;7.15;;
45198;SDS011;30941;46.422;18.772;2023-05-10T05:45:03;12.20;;;6.97;;
45198;SDS011;30941;46.422;18.772;2023-05-10T05:47:29;9.20;;;6.78;;
45198;SDS011;30941;46.422;18.772;2023-05-10T05:49:54;9.57;;;6.53;;
45198;SDS011;30941;46.422;18.772;2023-05-10T05:52:20;9.52;;;6.80;;
45198;SDS011;30941;46.422;18.772;2023-05-10T05:57:18;11.68;;;6.97;;
45198;SDS011;30941;46.422;18.772;2023-05-10T05:59:43;9.85;;;7.07;;
45198;SDS011;30941;46.422;18.772;2023-05-10T06:02:09;8.27;;;6.43;;
45198;SDS011;30941;46.422;18.772;2023-05-10T06:04:35;9.25;;;6.72;;
45198;SDS011;30941;46.422;18.772;2023-05-10T06:07:00;9.43;;;6.25;;
45198;SDS011;30941;46.422;18.772;2023-05-10T06:09:26;11.75;;;6.80;;
45198;SDS011;30941;46.422;18.772;2023-05-10T06:11:51;9.25;;;6.05;;
45198;SDS011;30941;46.422;18.772;2023-05-10T06:14:16;7.95;;;6.45;;
45198;SDS011;30941;46.422;18.772;2023-05-10T06:16:42;9.20;;;6.22;;
45198;SDS011;30941;46.422;18.772;2023-05-10T06:19:07;14.60;;;6.30;;
45198;SDS011;30941;46.422;18.772;2023-05-10T06:21:33;7.53;;;5.82;;
45198;SDS011;30941;46.422;18.772;2023-05-10T06:23:58;12.68;;;6.32;;
45198;SDS011;30941;46.422;18.772;2023-05-10T06:26:23;8.50;;;6.03;;
45198;SDS011;30941;46.422;18.772;2023-05-10T06:28:49;10.13;;;6.20;;
45198;SDS011;30941;46.422;18.772;2023-05-10T06:31:14;7.22;;;5.88;;
45198;SDS011;30941;46.422;18.772;2023-05-10T06:33:40;8.60;;;5.55;;
45198;SDS011;30941;46.422;18.772;2023-05-10T06:36:06;8.18;;;5.95;;
45198;SDS011;30941;46.422;18.772;2023-05-10T06:38:31;9.27;;;5.88;;
45198;SDS011;30941;46.422;18.772;2023-05-10T06:40:57;10.38;;;5.72;;
45198;SDS011;30941;46.422;18.772;2023-05-10T06:43:22;8.35;;;5.32;;
45198;SDS011;30941;46.422;18.772;2023-05-10T06:45:48;8.50;;;5.13;;
45198;SDS011;30941;46.422;18.772;2023-05-10T06:48:13;8.27;;;4.57;;
45198;SDS011;30941;46.422;18.772;2023-05-10T06:50:38;9.13;;;5.10;;
45198;SDS011;30941;46.422;18.772;2023-05-10T06:53:04;7.53;;;4.97;;
45198;SDS011;30941;46.422;18.772;2023-05-10T06:55:29;7.53;;;4.80;;
45198;SDS011;30941;46.422;18.772;2023-05-10T06:57:55;7.15;;;4.45;;
45198;SDS011;30941;46.422;18.772;2023-05-10T07:00:20;7.63;;;4.15;;
45198;SDS011;30941;46.422;18.772;2023-05-10T07:02:46;6.22;;;4.93;;
45198;SDS011;30941;46.422;18.772;2023-05-10T07:05:12;7.53;;;4.60;;
45198;SDS011;30941;46.422;18.772;2023-05-10T07:07:37;5.65;;;4.70;;
45198;SDS011;30941;46.422;18.772;2023-05-10T07:10:03;8.75;;;5.57;;
45198;SDS011;30941;46.422;18.772;2023-05-10T07:12:29;7.88;;;5.05;;
45198;SDS011;30941;46.422;18.772;2023-05-10T07:14:54;7.03;;;4.65;;
45198;SDS011;30941;46.422;18.772;2023-05-10T07:17:20;7.65;;;4.65;;
45198;SDS011;30941;46.422;18.772;2023-05-10T07:19:45;6.18;;;4.68;;
45198;SDS011;30941;46.422;18.772;2023-05-10T07:22:10;7.95;;;4.90;;
45198;SDS011;30941;46.422;18.772;2023-05-10T07:24:36;17.35;;;4.63;;
45198;SDS011;30941;46.422;18.772;2023-05-10T07:27:01;5.75;;;4.32;;
45198;SDS011;30941;46.422;18.772;2023-05-10T07:29:27;6.68;;;4.25;;
45198;SDS011;30941;46.422;18.772;2023-05-10T07:31:53;7.57;;;4.47;;
45198;SDS011;30941;46.422;18.772;2023-05-10T07:34:19;8.63;;;4.15;;
45198;SDS011;30941;46.422;18.772;2023-05-10T07:36:44;6.20;;;3.95;;
45198;SDS011;30941;46.422;18.772;2023-05-10T07:39:09;6.15;;;3.70;;
45198;SDS011;30941;46.422;18.772;2023-05-10T07:41:35;6.25;;;3.67;;
45198;SDS011;30941;46.422;18.772;2023-05-10T07:44:02;8.10;;;3.90;;
45198;SDS011;30941;46.422;18.772;2023-05-10T07:46:28;9.30;;;3.80;;
45198;SDS011;30941;46.422;18.772;2023-05-10T07:48:54;6.88;;;3.40;;
45198;SDS011;30941;46.422;18.772;2023-05-10T07:51:19;7.03;;;3.90;;
45198;SDS011;30941;46.422;18.772;2023-05-10T07:53:44;4.88;;;3.35;;
45198;SDS011;30941;46.422;18.772;2023-05-10T07:56:26;7.82;;;3.65;;
45198;SDS011;30941;46.422;18.772;2023-05-10T07:58:54;6.15;;;3.75;;
45198;SDS011;30941;46.422;18.772;2023-05-10T08:01:26;4.63;;;3.35;;
45198;SDS011;30941;46.422;18.772;2023-05-10T08:03:55;7.35;;;3.70;;
45198;SDS011;30941;46.422;18.772;2023-05-10T08:06:20;4.70;;;3.38;;
45198;SDS011;30941;46.422;18.772;2023-05-10T08:08:46;6.70;;;3.20;;
45198;SDS011;30941;46.422;18.772;2023-05-10T08:11:16;6.30;;;3.22;;
45198;SDS011;30941;46.422;18.772;2023-05-10T08:13:42;5.35;;;2.83;;
45198;SDS011;30941;46.422;18.772;2023-05-10T08:16:07;6.93;;;3.72;;
45198;SDS011;30941;46.422;18.772;2023-05-10T08:18:33;6.55;;;3.38;;
45198;SDS011;30941;46.422;18.772;2023-05-10T08:20:58;7.28;;;3.40;;
45198;SDS011;30941;46.422;18.772;2023-05-10T08:23:24;8.82;;;3.60;;
45198;SDS011;30941;46.422;18.772;2023-05-10T08:25:49;7.00;;;3.65;;
45198;SDS011;30941;46.422;18.772;2023-05-10T08:28:14;5.32;;;3.25;;
45198;SDS011;30941;46.422;18.772;2023-05-10T08:30:40;5.70;;;3.55;;
45198;SDS011;30941;46.422;18.772;2023-05-10T08:33:05;12.35;;;3.88;;
45198;SDS011;30941;46.422;18.772;2023-05-10T08:35:31;10.10;;;3.90;;
45198;SDS011;30941;46.422;18.772;2023-05-10T08:37:58;14.23;;;3.83;;
45198;SDS011;30941;46.422;18.772;2023-05-10T08:40:23;6.85;;;4.25;;
45198;SDS011;30941;46.422;18.772;2023-05-10T08:42:59;6.05;;;4.18;;
45198;SDS011;30941;46.422;18.772;2023-05-10T08:45:31;5.80;;;3.33;;
45198;SDS011;30941;46.422;18.772;2023-05-10T08:47:59;5.82;;;3.30;;
45198;SDS011;30941;46.422;18.772;2023-05-10T08:50:26;7.43;;;3.85;;
45198;SDS011;30941;46.422;18.772;2023-05-10T08:52:52;7.28;;;3.72;;
45198;SDS011;30941;46.422;18.772;2023-05-10T08:55:20;5.82;;;3.45;;
45198;SDS011;30941;46.422;18.772;2023-05-10T08:57:48;4.57;;;3.20;;
45198;SDS011;30941;46.422;18.772;2023-05-10T09:00:14;5.68;;;3.85;;
45198;SDS011;30941;46.422;18.772;2023-05-10T09:02:39;7.07;;;3.90;;
45198;SDS011;30941;46.422;18.772;2023-05-10T09:05:05;6.30;;;4.00;;
45198;SDS011;30941;46.422;18.772;2023-05-10T09:07:31;6.55;;;3.45;;
45198;SDS011;30941;46.422;18.772;2023-05-10T09:09:57;7.95;;;3.60;;
45198;SDS011;30941;46.422;18.772;2023-05-10T09:12:22;12.48;;;3.95;;
45198;SDS011;30941;46.422;18.772;2023-05-10T09:14:48;6.20;;;3.38;;
45198;SDS011;30941;46.422;18.772;2023-05-10T09:17:15;7.45;;;3.75;;
45198;SDS011;30941;46.422;18.772;2023-05-10T09:19:41;8.07;;;3.60;;
45198;SDS011;30941;46.422;18.772;2023-05-10T09:22:06;6.28;;;3.92;;
45198;SDS011;30941;46.422;18.772;2023-05-10T09:24:32;8.32;;;4.47;;
45198;SDS011;30941;46.422;18.772;2023-05-10T09:26:57;5.53;;;3.80;;
45198;SDS011;30941;46.422;18.772;2023-05-10T09:29:26;5.15;;;3.50;;
45198;SDS011;30941;46.422;18.772;2023-05-10T09:31:51;5.93;;;3.50;;
45198;SDS011;30941;46.422;18.772;2023-05-10T09:34:19;4.30;;;3.28;;
45198;SDS011;30941;46.422;18.772;2023-05-10T09:37:04;9.57;;;3.35;;
45198;SDS011;30941;46.422;18.772;2023-05-10T09:39:30;7.57;;;3.65;;
45198;SDS011;30941;46.422;18.772;2023-05-10T09:42:01;7.75;;;3.63;;
45198;SDS011;30941;46.422;18.772;2023-05-10T09:44:31;6.28;;;3.30;;
45198;SDS011;30941;46.422;18.772;2023-05-10T09:46:58;4.80;;;3.22;;
45198;SDS011;30941;46.422;18.772;2023-05-10T09:49:23;6.07;;;3.30;;
45198;SDS011;30941;46.422;18.772;2023-05-10T09:52:05;4.28;;;3.20;;
45198;SDS011;30941;46.422;18.772;2023-05-10T09:54:31;7.18;;;3.33;;
45198;SDS011;30941;46.422;18.772;2023-05-10T09:56:57;4.40;;;3.55;;
45198;SDS011;30941;46.422;18.772;2023-05-10T09:59:24;5.68;;;3.33;;
45198;SDS011;30941;46.422;18.772;2023-05-10T10:01:51;5.90;;;3.50;;
45198;SDS011;30941;46.422;18.772;2023-05-10T10:04:17;8.20;;;3.80;;
45198;SDS011;30941;46.422;18.772;2023-05-10T10:06:45;6.32;;;3.15;;
45198;SDS011;30941;46.422;18.772;2023-05-10T10:09:10;5.10;;;3.90;;
45198;SDS011;30941;46.422;18.772;2023-05-10T10:11:36;7.45;;;3.58;;
45198;SDS011;30941;46.422;18.772;2023-05-10T10:14:03;14.07;;;3.50;;
45198;SDS011;30941;46.422;18.772;2023-05-10T10:16:30;6.72;;;3.20;;
45198;SDS011;30941;46.422;18.772;2023-05-10T10:18:56;7.60;;;3.05;;
45198;SDS011;30941;46.422;18.772;2023-05-10T10:21:22;4.15;;;3.08;;
45198;SDS011;30941;46.422;18.772;2023-05-10T10:23:48;4.05;;;3.55;;
45198;SDS011;30941;46.422;18.772;2023-05-10T10:26:13;7.18;;;3.55;;
45198;SDS011;30941;46.422;18.772;2023-05-10T10:28:41;5.68;;;3.33;;
45198;SDS011;30941;46.422;18.772;2023-05-10T10:34:05;4.57;;;4.15;;
45198;SDS011;30941;46.422;18.772;2023-05-10T10:36:32;13.07;;;3.10;;
45198;SDS011;30941;46.422;18.772;2023-05-10T10:39:07;6.25;;;2.97;;
45198;SDS011;30941;46.422;18.772;2023-05-10T10:41:35;6.22;;;2.88;;
45198;SDS011;30941;46.422;18.772;2023-05-10T10:44:36;5.65;;;3.03;;
45198;SDS011;30941;46.422;18.772;2023-05-10T10:57:49;6.85;;;2.80;;
45198;SDS011;30941;46.422;18.772;2023-05-10T11:03:08;4.47;;;2.65;;
45198;SDS011;30941;46.422;18.772;2023-05-10T11:10:52;7.72;;;2.88;;
45198;SDS011;30941;46.422;18.772;2023-05-10T11:13:27;4.82;;;3.00;;
45198;SDS011;30941;46.422;18.772;2023-05-10T11:15:56;3.50;;;2.53;;
45198;SDS011;30941;46.422;18.772;2023-05-10T11:18:24;3.97;;;2.55;;
45198;SDS011;30941;46.422;18.772;2023-05-10T11:20:56;8.20;;;4.07;;
45198;SDS011;30941;46.422;18.772;2023-05-10T11:23:28;6.30;;;2.90;;
45198;SDS011;30941;46.422;18.772;2023-05-10T11:25:55;6.72;;;2.50;;
45198;SDS011;30941;46.422;18.772;2023-05-10T11:28:20;3.45;;;2.53;;
45198;SDS011;30941;46.422;18.772;2023-05-10T11:30:46;5.50;;;2.50;;
45198;SDS011;30941;46.422;18.772;2023-05-10T11:33:16;3.58;;;2.55;;
45198;SDS011;30941;46.422;18.772;2023-05-10T11:35:42;4.90;;;2.45;;
45198;SDS011;30941;46.422;18.772;2023-05-10T11:38:08;7.32;;;3.28;;
45198;SDS011;30941;46.422;18.772;2023-05-10T11:40:35;4.15;;;2.38;;
45198;SDS011;30941;46.422;18.772;2023-05-10T11:43:01;4.43;;;2.67;;
45198;SDS011;30941;46.422;18.772;2023-05-10T11:45:27;3.35;;;2.60;;
45198;SDS011;30941;46.422;18.772;2023-05-10T11:47:54;4.47;;;2.60;;
45198;SDS011;30941;46.422;18.772;2023-05-10T11:50:23;4.82;;;2.50;;
45198;SDS011;30941;46.422;18.772;2023-05-10T11:52:52;7.10;;;2.90;;
45198;SDS011;30941;46.422;18.772;2023-05-10T11:55:18;3.70;;;2.60;;
45198;SDS011;30941;46.422;18.772;2023-05-10T11:57:44;8.50;;;2.85;;
45198;SDS011;30941;46.422;18.772;2023-05-10T12:00:11;6.80;;;3.00;;
45198;SDS011;30941;46.422;18.772;2023-05-10T12:02:37;5.13;;;2.50;;
45198;SDS011;30941;46.422;18.772;2023-05-10T12:05:02;4.65;;;2.83;;
45198;SDS011;30941;46.422;18.772;2023-05-10T12:07:30;10.68;;;2.90;;
45198;SDS011;30941;46.422;18.772;2023-05-10T12:10:02;4.68;;;2.88;;
45198;SDS011;30941;46.422;18.772;2023-05-10T12:12:34;8.40;;;2.80;;
45198;SDS011;30941;46.422;18.772;2023-05-10T12:15:01;6.43;;;2.97;;
45198;SDS011;30941;46.422;18.772;2023-05-10T12:17:28;4.13;;;2.60;;
45198;SDS011;30941;46.422;18.772;2023-05-10T12:19:54;11.07;;;4.28;;
45198;SDS011;30941;46.422;18.772;2023-05-10T12:22:24;4.05;;;2.58;;
45198;SDS011;30941;46.422;18.772;2023-05-10T12:24:50;3.63;;;2.80;;
45198;SDS011;30941;46.422;18.772;2023-05-10T12:27:15;4.90;;;2.53;;
45198;SDS011;30941;46.422;18.772;2023-05-10T12:29:41;4.65;;;2.92;;
45198;SDS011;30941;46.422;18.772;2023-05-10T12:32:09;4.68;;;2.75;;
45198;SDS011;30941;46.422;18.772;2023-05-10T12:34:35;9.68;;;3.00;;
45198;SDS011;30941;46.422;18.772;2023-05-10T12:37:01;3.35;;;2.33;;
45198;SDS011;30941;46.422;18.772;2023-05-10T12:39:38;4.05;;;2.80;;
45198;SDS011;30941;46.422;18.772;2023-05-10T12:42:06;3.95;;;2.80;;
45198;SDS011;30941;46.422;18.772;2023-05-10T12:44:32;5.80;;;2.83;;
45198;SDS011;30941;46.422;18.772;2023-05-10T12:46:57;4.55;;;2.70;;
45198;SDS011;30941;46.422;18.772;2023-05-10T12:49:22;3.63;;;2.50;;
45198;SDS011;30941;46.422;18.772;2023-05-10T12:51:48;5.47;;;3.03;;
45198;SDS011;30941;46.422;18.772;2023-05-10T12:54:13;4.65;;;2.88;;
45198;SDS011;30941;46.422;18.772;2023-05-10T12:56:39;3.90;;;2.40;;
45198;SDS011;30941;46.422;18.772;2023-05-10T12:59:05;3.33;;;2.53;;
45198;SDS011;30941;46.422;18.772;2023-05-10T13:01:31;4.72;;;2.70;;
45198;SDS011;30941;46.422;18.772;2023-05-10T13:03:56;3.10;;;2.20;;
45198;SDS011;30941;46.422;18.772;2023-05-10T13:06:22;7.07;;;2.60;;
45198;SDS011;30941;46.422;18.772;2023-05-10T13:08:47;4.50;;;2.05;;
45198;SDS011;30941;46.422;18.772;2023-05-10T13:11:12;5.53;;;2.25;;
45198;SDS011;30941;46.422;18.772;2023-05-10T13:13:41;4.20;;;2.78;;
45198;SDS011;30941;46.422;18.772;2023-05-10T13:16:06;3.17;;;2.38;;
45198;SDS011;30941;46.422;18.772;2023-05-10T13:18:32;6.05;;;2.95;;
45198;SDS011;30941;46.422;18.772;2023-05-10T13:20:57;4.95;;;2.90;;
45198;SDS011;30941;46.422;18.772;2023-05-10T13:23:22;6.35;;;2.47;;
45198;SDS011;30941;46.422;18.772;2023-05-10T13:25:48;4.63;;;2.83;;
45198;SDS011;30941;46.422;18.772;2023-05-10T13:28:13;5.53;;;2.40;;
45198;SDS011;30941;46.422;18.772;2023-05-10T13:30:38;6.05;;;2.15;;
45198;SDS011;30941;46.422;18.772;2023-05-10T13:33:04;4.28;;;2.10;;
45198;SDS011;30941;46.422;18.772;2023-05-10T13:35:30;5.10;;;2.40;;
45198;SDS011;30941;46.422;18.772;2023-05-10T13:37:55;2.83;;;2.10;;
45198;SDS011;30941;46.422;18.772;2023-05-10T13:40:22;5.68;;;2.55;;
45198;SDS011;30941;46.422;18.772;2023-05-10T13:42:48;4.38;;;2.53;;
45198;SDS011;30941;46.422;18.772;2023-05-10T13:45:13;5.82;;;2.15;;
45198;SDS011;30941;46.422;18.772;2023-05-10T13:47:38;4.47;;;2.08;;
45198;SDS011;30941;46.422;18.772;2023-05-10T13:50:04;4.07;;;2.35;;
45198;SDS011;30941;46.422;18.772;2023-05-10T13:52:30;4.07;;;2.08;;
45198;SDS011;30941;46.422;18.772;2023-05-10T13:54:55;4.32;;;2.28;;
45198;SDS011;30941;46.422;18.772;2023-05-10T13:57:22;3.10;;;2.00;;
45198;SDS011;30941;46.422;18.772;2023-05-10T13:59:48;3.13;;;2.20;;
45198;SDS011;30941;46.422;18.772;2023-05-10T14:02:14;6.80;;;2.15;;
45198;SDS011;30941;46.422;18.772;2023-05-10T14:04:40;5.32;;;2.85;;
45198;SDS011;30941;46.422;18.772;2023-05-10T14:07:05;3.95;;;2.50;;
45198;SDS011;30941;46.422;18.772;2023-05-10T14:09:31;5.78;;;2.28;;
45198;SDS011;30941;46.422;18.772;2023-05-10T14:11:56;7.38;;;2.53;;
45198;SDS011;30941;46.422;18.772;2023-05-10T14:14:22;2.47;;;2.20;;
45198;SDS011;30941;46.422;18.772;2023-05-10T14:16:47;8.02;;;2.25;;
45198;SDS011;30941;46.422;18.772;2023-05-10T14:19:13;4.45;;;2.33;;
45198;SDS011;30941;46.422;18.772;2023-05-10T14:21:38;4.95;;;2.28;;
45198;SDS011;30941;46.422;18.772;2023-05-10T14:24:03;4.88;;;2.45;;
45198;SDS011;30941;46.422;18.772;2023-05-10T14:26:29;5.18;;;2.28;;
45198;SDS011;30941;46.422;18.772;2023-05-10T14:28:54;4.43;;;2.28;;
45198;SDS011;30941;46.422;18.772;2023-05-10T14:31:20;4.63;;;2.20;;
45198;SDS011;30941;46.422;18.772;2023-05-10T14:33:48;6.65;;;2.42;;
45198;SDS011;30941;46.422;18.772;2023-05-10T14:36:14;6.50;;;2.42;;
45198;SDS011;30941;46.422;18.772;2023-05-10T14:38:39;5.15;;;2.40;;
45198;SDS011;30941;46.422;18.772;2023-05-10T14:41:05;6.93;;;2.10;;
45198;SDS011;30941;46.422;18.772;2023-05-10T14:43:30;3.05;;;2.25;;
45198;SDS011;30941;46.422;18.772;2023-05-10T14:45:56;3.17;;;2.03;;
45198;SDS011;30941;46.422;18.772;2023-05-10T14:48:21;5.65;;;2.30;;
45198;SDS011;30941;46.422;18.772;2023-05-10T14:50:47;4.00;;;1.90;;
45198;SDS011;30941;46.422;18.772;2023-05-10T14:53:14;2.42;;;1.95;;
45198;SDS011;30941;46.422;18.772;2023-05-10T14:55:40;12.73;;;2.47;;
45198;SDS011;30941;46.422;18.772;2023-05-10T14:58:05;3.10;;;2.13;;
45198;SDS011;30941;46.422;18.772;2023-05-10T15:00:31;3.10;;;2.28;;